Time;durP1;ratioP1;P1;durP2;ratioP2;P2;SDS_P1;SDS_P2;PMS_P1;PMS_P2;Temp;Humidity;BMP_temperature;BMP_pressure;BME280_temperature;BME280_humidity;BME280_pressure;Samples;Min_cycle;Max_cycle;Signal;HPM_P1;HPM_P2
2024/02/23 00:01:54;;;;;;;0.70;0.70;;;4.40;38.80;;;;;;6065081;23;20430;-80
2024/02/23 00:04:42;;;;;;;0.60;0.60;;;4.40;22.20;;;;;;6064376;23;20082;-79
2024/02/23 00:07:33;;;;;;;0.88;0.88;;;4.40;20.60;;;;;;6062020;23;20113;-80
2024/02/23 00:10:22;;;;;;;0.93;0.80;;;4.40;31.40;;;;;;6077365;23;20075;-79
2024/02/23 00:13:09;;;;;;;0.70;0.70;;;4.40;88.30;;;;;;6080583;23;20614;-78
2024/02/23 00:15:58;;;;;;;0.70;0.70;;;4.40;99.90;;;;;;6091748;23;20034;-79
2024/02/23 00:18:46;;;;;;;1.13;0.80;;;4.30;99.90;;;;;;6059544;23;20121;-78
2024/02/23 00:21:34;;;;;;;0.75;0.70;;;4.40;99.90;;;;;;6055219;23;20174;-81
2024/02/23 00:24:21;;;;;;;2.35;0.82;;;4.30;99.90;;;;;;6074148;23;20470;-79
2024/02/23 00:27:10;;;;;;;2.78;1.00;;;4.30;99.90;;;;;;6047780;23;20031;-80
2024/02/23 00:30:04;;;;;;;2.78;1.00;;;4.40;78.60;;;;;;6062910;23;20109;-79
2024/02/23 00:32:51;;;;;;;1.92;1.02;;;4.40;1.00;;;;;;6060673;23;20645;-80
2024/02/23 00:35:39;;;;;;;4.93;1.20;;;4.40;1.00;;;;;;6062077;23;20034;-78
2024/02/23 00:38:28;;;;;;;4.38;1.20;;;4.50;1.00;;;;;;6039255;23;20022;-79
2024/02/23 00:41:20;;;;;;;2.47;1.08;;;4.50;1.00;;;;;;6062021;23;20026;-78
2024/02/23 00:44:08;;;;;;;4.90;1.20;;;4.50;99.90;;;;;;6061745;23;20029;-80
2024/02/23 00:46:58;;;;;;;2.78;1.10;;;4.50;99.90;;;;;;6041890;23;20051;-79
2024/02/23 00:49:45;;;;;;;2.30;1.75;;;4.50;99.90;;;;;;6060906;23;20031;-79
2024/02/23 00:52:32;;;;;;;3.00;0.90;;;4.50;99.90;;;;;;6059878;23;20113;-79
2024/02/23 00:55:22;;;;;;;1.48;1.10;;;4.40;99.90;;;;;;6059821;23;20050;-80
2024/02/23 00:58:11;;;;;;;2.30;1.73;;;4.40;99.90;;;;;;6066022;23;20034;-78
2024/02/23 01:00:59;;;;;;;5.03;1.48;;;4.40;99.90;;;;;;6043433;23;20037;-81
2024/02/23 01:03:47;;;;;;;5.03;1.73;;;4.40;99.90;;;;;;6070473;23;20027;-79
2024/02/23 01:06:35;;;;;;;2.03;0.90;;;4.40;99.90;;;;;;6068589;23;20022;-80
2024/02/23 01:09:23;;;;;;;4.35;1.17;;;4.40;99.90;;;;;;6061038;23;20566;-78
2024/02/23 01:12:10;;;;;;;2.13;1.20;;;4.40;99.90;;;;;;6068752;23;20110;-80
2024/02/23 01:14:59;;;;;;;3.42;1.30;;;4.40;99.90;;;;;;6054435;23;20406;-79
2024/02/23 01:17:51;;;;;;;2.60;1.27;;;4.40;99.90;;;;;;6068797;23;20027;-81
2024/02/23 01:20:38;;;;;;;2.17;1.33;;;4.40;89.80;;;;;;6059158;23;20381;-79
2024/02/23 01:23:28;;;;;;;1.02;0.95;;;4.40;66.80;;;;;;6061292;23;20026;-78
2024/02/23 01:26:15;;;;;;;2.50;1.20;;;4.40;19.50;;;;;;6066432;23;20119;-80
2024/02/23 01:29:05;;;;;;;3.55;1.73;;;4.40;1.00;;;;;;6061388;23;20022;-79
2024/02/23 01:31:54;;;;;;;4.28;1.50;;;4.40;1.00;;;;;;6060382;23;20031;-78
2024/02/23 01:34:43;;;;;;;2.75;1.50;;;4.30;1.00;;;;;;6060166;23;20027;-78
2024/02/23 01:37:32;;;;;;;8.18;1.58;;;4.30;1.00;;;;;;6059651;23;20442;-79
2024/02/23 01:40:20;;;;;;;2.00;1.10;;;4.30;1.00;;;;;;6040763;23;20034;-80
2024/02/23 01:43:08;;;;;;;5.78;1.42;;;4.20;1.00;;;;;;6064656;23;20023;-79
2024/02/23 01:45:56;;;;;;;6.97;1.52;;;4.20;1.00;;;;;;6060590;23;20119;-79
2024/02/23 01:48:43;;;;;;;5.25;1.60;;;4.20;1.00;;;;;;6063607;23;20472;-76
2024/02/23 01:51:31;;;;;;;4.82;1.27;;;4.20;1.00;;;;;;6053611;23;20041;-79
2024/02/23 01:54:19;;;;;;;7.85;1.50;;;4.20;1.00;;;;;;6054905;23;20035;-76
2024/02/23 01:57:09;;;;;;;4.68;1.52;;;4.20;1.00;;;;;;6065640;23;20023;-76
2024/02/23 02:00:18;;;;;;;5.35;1.25;;;4.20;1.00;;;;;;6066520;23;20077;-77
2024/02/23 02:03:06;;;;;;;3.10;1.25;;;4.20;1.00;;;;;;6048008;23;20070;-80
2024/02/23 02:05:58;;;;;;;5.53;1.23;;;4.10;1.00;;;;;;6061933;23;20027;-79
2024/02/23 02:08:47;;;;;;;3.00;1.38;;;4.00;15.40;;;;;;6058696;23;20027;-79
2024/02/23 02:11:48;;;;;;;6.63;1.60;;;3.90;99.90;;;;;;6061158;23;20030;-79
2024/02/23 02:14:36;;;;;;;6.05;1.42;;;3.90;99.90;;;;;;6060019;23;20041;-78
2024/02/23 02:17:29;;;;;;;6.65;1.40;;;3.80;99.90;;;;;;6060956;23;20083;-79
2024/02/23 02:20:26;;;;;;;5.22;1.42;;;3.90;99.90;;;;;;6059331;23;20106;-80
2024/02/23 02:23:14;;;;;;;6.90;1.15;;;3.90;99.90;;;;;;6060770;23;20022;-80
2024/02/23 02:26:03;;;;;;;4.97;1.33;;;3.90;99.90;;;;;;6061043;23;20041;-80
2024/02/23 02:28:52;;;;;;;5.63;1.38;;;3.90;99.90;;;;;;6060202;23;20046;-79
2024/02/23 02:31:41;;;;;;;3.05;1.08;;;3.90;1.00;;;;;;6039334;23;20027;-79
2024/02/23 02:34:29;;;;;;;3.58;0.95;;;4.00;99.90;;;;;;6065309;23;20043;-76
2024/02/23 02:37:17;;;;;;;3.10;1.13;;;4.10;99.90;;;;;;6040719;23;20039;-78
2024/02/23 02:40:06;;;;;;;4.20;1.30;;;4.00;99.90;;;;;;6060952;23;20082;-77
2024/02/23 02:42:56;;;;;;;3.80;1.23;;;4.00;99.90;;;;;;6060330;23;20027;-78
2024/02/23 02:45:43;;;;;;;2.92;1.30;;;4.10;99.90;;;;;;6061135;23;20023;-75
2024/02/23 02:48:32;;;;;;;4.65;1.33;;;4.10;1.00;;;;;;6071945;23;20031;-79
2024/02/23 02:51:22;;;;;;;4.05;1.33;;;4.10;1.00;;;;;;6042296;23;20042;-79
2024/02/23 02:54:12;;;;;;;5.95;1.35;;;4.20;99.90;;;;;;6059192;23;20030;-77
2024/02/23 02:56:59;;;;;;;2.45;1.17;;;4.20;99.90;;;;;;6047768;23;20462;-80
2024/02/23 02:59:50;;;;;;;2.80;1.08;;;4.20;99.90;;;;;;6043006;23;20026;-81
2024/02/23 03:02:38;;;;;;;4.43;1.20;;;4.20;6.40;;;;;;6059183;23;20147;-80
2024/02/23 03:05:31;;;;;;;4.68;1.40;;;4.20;1.00;;;;;;6037093;23;20031;-80
2024/02/23 03:08:19;;;;;;;3.83;1.10;;;4.10;1.00;;;;;;6059458;23;20130;-81
2024/02/23 03:11:06;;;;;;;2.88;0.90;;;4.10;1.00;;;;;;6058506;23;20374;-80
2024/02/23 03:13:54;;;;;;;3.50;1.08;;;4.00;1.00;;;;;;6040356;23;20140;-80
2024/02/23 03:16:42;;;;;;;5.53;1.40;;;4.00;99.90;;;;;;6064020;23;20041;-76
2024/02/23 03:19:30;;;;;;;2.08;1.20;;;4.00;99.90;;;;;;6042880;23;20517;-79
2024/02/23 03:22:17;;;;;;;3.72;1.20;;;3.90;99.90;;;;;;6063485;23;20034;-81
2024/02/23 03:25:09;;;;;;;4.68;1.20;;;3.90;99.90;;;;;;6060788;23;20545;-79
2024/02/23 03:27:57;;;;;;;2.30;1.25;;;3.90;99.90;;;;;;6073341;23;20023;-79
2024/02/23 03:30:51;;;;;;;5.20;1.20;;;3.90;99.90;;;;;;6063826;23;20086;-78
2024/02/23 03:33:38;;;;;;;1.65;1.00;;;3.90;99.90;;;;;;6073110;23;20478;-80
2024/02/23 03:36:26;;;;;;;2.45;1.02;;;3.90;99.90;;;;;;6073562;23;20371;-79
2024/02/23 03:39:14;;;;;;;2.05;0.90;;;3.90;99.90;;;;;;6037707;23;20027;-80
2024/02/23 03:42:01;;;;;;;4.28;1.30;;;3.90;99.90;;;;;;6077029;23;20046;-78
2024/02/23 03:44:51;;;;;;;3.72;1.15;;;3.80;99.90;;;;;;6072465;23;20033;-79
2024/02/23 03:47:40;;;;;;;3.00;1.17;;;3.90;99.90;;;;;;6068370;23;20078;-79
2024/02/23 03:50:31;;;;;;;5.93;1.35;;;3.80;99.90;;;;;;6068987;23;20023;-80
2024/02/23 03:53:20;;;;;;;7.82;1.63;;;3.80;99.90;;;;;;6071301;23;20035;-79
2024/02/23 03:56:08;;;;;;;5.00;1.40;;;3.70;99.90;;;;;;6070220;23;20027;-80
2024/02/23 03:58:55;;;;;;;4.32;1.20;;;3.60;99.90;;;;;;6061719;23;20035;-77
2024/02/23 04:01:44;;;;;;;6.88;1.30;;;3.60;99.90;;;;;;6062897;23;20399;-80
2024/02/23 04:04:33;;;;;;;6.13;1.45;;;3.60;99.90;;;;;;6062529;23;20027;-79
2024/02/23 04:07:21;;;;;;;3.00;1.20;;;3.60;99.90;;;;;;6061689;23;20026;-79
2024/02/23 04:10:09;;;;;;;1.95;1.05;;;3.60;99.90;;;;;;6064082;23;20023;-79
2024/02/23 04:13:01;;;;;;;1.40;1.27;;;3.60;99.90;;;;;;6042233;23;20035;-79
2024/02/23 04:15:49;;;;;;;4.22;0.98;;;3.50;99.90;;;;;;6062468;23;20039;-80
2024/02/23 04:18:36;;;;;;;4.68;1.40;;;3.50;99.90;;;;;;6073407;23;20034;-80
2024/02/23 04:21:25;;;;;;;5.43;1.40;;;3.40;99.90;;;;;;6039469;23;20669;-77
2024/02/23 04:24:13;;;;;;;4.15;1.23;;;3.40;99.90;;;;;;6050877;23;20023;-79
2024/02/23 04:27:00;;;;;;;4.78;1.20;;;3.40;99.90;;;;;;6067400;23;20074;-79
2024/02/23 04:29:48;;;;;;;3.80;2.00;;;3.40;99.90;;;;;;6062752;23;20037;-79
2024/02/23 04:32:36;;;;;;;4.35;1.20;;;3.40;99.90;;;;;;6062699;23;20351;-80
2024/02/23 04:35:24;;;;;;;4.07;1.88;;;3.30;99.90;;;;;;6042185;23;20058;-79
2024/02/23 04:38:14;;;;;;;2.25;1.20;;;3.30;99.90;;;;;;6062733;23;20027;-80
2024/02/23 04:41:05;;;;;;;6.45;1.55;;;3.30;99.90;;;;;;6061324;23;20027;-77
2024/02/23 04:43:59;;;;;;;6.40;1.50;;;3.20;99.90;;;;;;6042572;23;20038;-79
2024/02/23 04:46:49;;;;;;;3.95;1.20;;;3.20;99.90;;;;;;6074777;23;20096;-81
2024/02/23 04:49:38;;;;;;;6.68;1.52;;;3.10;99.90;;;;;;6065153;23;20033;-78
2024/02/23 04:52:28;;;;;;;4.00;1.60;;;3.10;99.90;;;;;;6061477;23;20031;-81
2024/02/23 04:55:15;;;;;;;4.95;1.67;;;3.00;99.90;;;;;;6061269;23;20030;-78
2024/02/23 04:58:07;;;;;;;5.22;1.48;;;3.00;99.90;;;;;;6061966;23;20142;-81
2024/02/23 05:00:56;;;;;;;6.35;1.35;;;3.00;99.90;;;;;;6063041;23;20062;-79
2024/02/23 05:03:44;;;;;;;4.70;1.70;;;3.00;99.90;;;;;;6059821;23;20078;-81
2024/02/23 05:06:34;;;;;;;4.32;1.40;;;2.90;99.90;;;;;;6046007;23;20030;-77
2024/02/23 05:09:23;;;;;;;2.58;1.40;;;2.90;99.90;;;;;;6072949;23;20027;-80
2024/02/23 05:12:11;;;;;;;3.95;1.40;;;2.80;99.90;;;;;;6066095;23;20455;-79
2024/02/23 05:14:59;;;;;;;6.88;1.60;;;2.80;99.90;;;;;;6066602;23;20105;-79
2024/02/23 05:17:48;;;;;;;5.38;2.10;;;2.80;99.90;;;;;;6039655;23;20093;-81
2024/02/23 05:20:36;;;;;;;7.28;1.50;;;2.70;1.00;;;;;;6059986;23;20071;-79
2024/02/23 05:23:26;;;;;;;6.40;1.65;;;2.60;1.00;;;;;;6020101;23;20022;-79
2024/02/23 05:26:13;;;;;;;5.97;1.65;;;2.50;1.00;;;;;;6057906;23;20108;-79
2024/02/23 05:29:02;;;;;;;3.13;1.38;;;2.40;1.00;;;;;;6039057;23;20023;-79
2024/02/23 05:31:53;;;;;;;7.32;1.73;;;2.30;1.30;;;;;;6058732;23;20116;-80
2024/02/23 05:34:44;;;;;;;8.07;1.25;;;2.40;99.90;;;;;;6040179;23;20037;-80
2024/02/23 05:37:32;;;;;;;4.30;1.30;;;2.40;99.90;;;;;;6022713;23;20027;-80
2024/02/23 05:40:19;;;;;;;1.75;1.02;;;2.50;99.90;;;;;;6038460;23;20893;-81
2024/02/23 05:43:07;;;;;;;4.70;1.40;;;2.50;99.90;;;;;;6053974;23;20038;-77
2024/02/23 05:45:57;;;;;;;5.40;1.30;;;2.50;99.90;;;;;;6052843;23;20039;-77
2024/02/23 05:48:44;;;;;;;9.32;1.42;;;2.50;99.90;;;;;;6058087;23;20029;-77
2024/02/23 05:51:32;;;;;;;5.05;1.88;;;2.50;99.90;;;;;;6062784;23;20031;-78
2024/02/23 05:54:19;;;;;;;8.00;2.03;;;2.50;1.00;;;;;;6032726;23;20054;-76
2024/02/23 05:57:07;;;;;;;7.53;2.55;;;2.60;1.00;;;;;;6063041;23;20089;-77
2024/02/23 05:59:55;;;;;;;4.65;1.70;;;2.60;1.00;;;;;;6053663;23;20393;-77
2024/02/23 06:02:46;;;;;;;10.82;2.08;;;2.70;1.00;;;;;;6059521;23;20593;-82
2024/02/23 06:05:40;;;;;;;4.72;1.67;;;2.70;1.00;;;;;;6062611;23;20098;-80
2024/02/23 06:08:31;;;;;;;3.42;1.20;;;2.80;1.00;;;;;;6060712;23;20031;-79
2024/02/23 06:11:18;;;;;;;3.97;1.35;;;2.80;1.00;;;;;;6060693;23;20033;-79
2024/02/23 06:14:06;;;;;;;2.47;1.45;;;2.80;1.00;;;;;;6060258;23;20027;-81
2024/02/23 06:16:56;;;;;;;5.57;1.40;;;2.80;1.00;;;;;;6059219;23;20030;-78
2024/02/23 06:19:44;;;;;;;5.05;1.50;;;2.80;1.00;;;;;;6060495;23;20027;-81
2024/02/23 06:22:34;;;;;;;5.28;2.00;;;2.70;1.00;;;;;;6037365;23;20081;-78
2024/02/23 06:25:24;;;;;;;6.15;2.35;;;2.60;12.90;;;;;;6039443;23;20237;-79
2024/02/23 06:28:11;;;;;;;4.35;1.70;;;2.60;88.70;;;;;;6060824;23;20105;-79
2024/02/23 06:30:59;;;;;;;3.92;1.83;;;2.70;99.90;;;;;;6068278;23;20022;-78
2024/02/23 06:33:48;;;;;;;7.20;1.83;;;2.70;99.90;;;;;;6068086;23;20490;-80
2024/02/23 06:36:37;;;;;;;2.10;1.50;;;2.80;99.90;;;;;;6067069;23;20030;-79
2024/02/23 06:39:28;;;;;;;3.90;1.63;;;2.90;99.90;;;;;;6070883;23;20022;-76
2024/02/23 06:42:15;;;;;;;5.72;1.30;;;2.90;99.90;;;;;;6088314;23;20034;-78
2024/02/23 06:45:03;;;;;;;4.75;1.40;;;3.00;99.90;;;;;;6077467;23;20030;-80
2024/02/23 06:47:51;;;;;;;5.15;1.50;;;3.00;95.40;;;;;;6083938;23;20041;-80
2024/02/23 06:50:40;;;;;;;3.30;1.50;;;3.00;68.80;;;;;;6068810;23;20027;-79
2024/02/23 06:53:30;;;;;;;7.15;1.70;;;3.00;27.40;;;;;;6043985;23;20033;-79
2024/02/23 06:56:19;;;;;;;5.78;1.88;;;3.00;3.30;;;;;;6066753;23;20038;-79
2024/02/23 06:59:12;;;;;;;5.28;1.60;;;3.00;1.00;;;;;;6062731;23;20066;-80
2024/02/23 07:02:00;;;;;;;5.35;2.47;;;3.00;1.00;;;;;;6044145;23;20034;-81
2024/02/23 07:04:49;;;;;;;5.28;1.70;;;3.00;1.00;;;;;;6062324;23;20521;-78
2024/02/23 07:07:40;;;;;;;4.70;1.63;;;3.10;1.00;;;;;;6070047;23;20098;-78
2024/02/23 07:10:31;;;;;;;4.90;1.73;;;3.10;1.00;;;;;;6071191;23;20446;-76
2024/02/23 07:13:19;;;;;;;6.63;1.63;;;3.10;99.90;;;;;;6058123;23;20799;-79
2024/02/23 07:16:07;;;;;;;4.85;1.60;;;3.10;99.90;;;;;;6055771;23;20050;-79
2024/02/23 07:18:55;;;;;;;5.80;1.83;;;3.10;99.90;;;;;;6057478;23;20045;-79
2024/02/23 07:21:43;;;;;;;4.05;1.52;;;3.20;99.90;;;;;;6048789;23;20038;-78
2024/02/23 07:24:34;;;;;;;2.20;1.50;;;3.20;99.90;;;;;;6036242;23;20090;-78
2024/02/23 07:27:22;;;;;;;5.47;1.60;;;3.20;99.90;;;;;;6071806;23;20059;-78
2024/02/23 07:30:10;;;;;;;7.22;1.70;;;3.20;99.90;;;;;;6054609;23;20023;-78
2024/02/23 07:32:59;;;;;;;2.67;1.73;;;3.30;99.90;;;;;;6069975;23;20026;-76
2024/02/23 07:35:48;;;;;;;7.00;1.90;;;3.30;99.90;;;;;;6069580;23;20035;-78
2024/02/23 07:38:36;;;;;;;5.65;1.70;;;3.40;99.90;;;;;;6068023;23;20079;-77
2024/02/23 07:41:24;;;;;;;5.55;1.48;;;3.40;99.90;;;;;;6072969;23;20450;-77
2024/02/23 07:44:12;;;;;;;9.05;1.92;;;3.50;99.90;;;;;;6059429;23;20110;-80
2024/02/23 07:46:59;;;;;;;7.60;1.90;;;3.60;45.60;;;;;;6056374;23;20106;-79
2024/02/23 07:49:48;;;;;;;2.45;1.33;;;3.60;1.00;;;;;;6059521;23;20019;-80
2024/02/23 07:52:36;;;;;;;7.47;1.65;;;3.50;1.00;;;;;;6057603;23;20087;-79
2024/02/23 07:55:24;;;;;;;4.07;1.60;;;3.50;1.00;;;;;;6038512;23;20062;-78
2024/02/23 07:58:12;;;;;;;4.93;1.75;;;3.50;1.00;;;;;;6055091;23;20037;-81
2024/02/23 08:01:01;;;;;;;5.43;1.60;;;3.50;1.00;;;;;;6058881;23;20027;-80
2024/02/23 08:03:52;;;;;;;6.25;1.38;;;3.50;1.00;;;;;;6059334;23;20972;-81
2024/02/23 08:06:42;;;;;;;;;;;3.50;1.00;;;;;;6068462;23;20027;-78
2024/02/23 08:09:30;;;;;;;8.65;1.65;;;3.50;99.90;;;;;;6053378;23;19953;-78
2024/02/23 08:12:18;;;;;;;6.90;2.05;;;3.40;99.90;;;;;;6066427;23;20019;-76
2024/02/23 08:15:06;;;;;;;6.25;1.70;;;3.40;99.90;;;;;;6061472;23;20023;-80
2024/02/23 08:17:56;;;;;;;3.22;1.33;;;3.40;99.90;;;;;;6055504;23;20023;-77
2024/02/23 08:20:44;;;;;;;23.15;10.57;;;3.40;99.90;;;;;;6058387;23;20027;-80
2024/02/23 08:23:34;;;;;;;5.20;1.98;;;3.50;99.90;;;;;;6059027;23;20171;-79
2024/02/23 08:26:22;;;;;;;6.70;1.85;;;3.50;99.90;;;;;;6058888;23;20102;-81
2024/02/23 08:29:11;;;;;;;11.18;2.22;;;3.60;99.90;;;;;;6060287;23;20027;-78
2024/02/23 08:31:58;;;;;;;5.30;1.50;;;3.60;99.90;;;;;;6058320;23;20019;-79
2024/02/23 08:34:46;;;;;;;6.97;1.83;;;3.60;99.90;;;;;;6056568;23;20030;-79
2024/02/23 08:37:44;;;;;;;5.10;1.38;;;3.60;99.90;;;;;;6058727;23;20043;-77
2024/02/23 08:40:31;;;;;;;6.65;1.67;;;3.60;99.90;;;;;;6060217;23;20126;-81
2024/02/23 08:43:22;;;;;;;8.07;1.95;;;3.50;99.90;;;;;;6057550;23;20171;-79
2024/02/23 08:46:09;;;;;;;5.95;1.60;;;3.50;99.90;;;;;;6059111;23;20031;-78
2024/02/23 08:48:57;;;;;;;6.25;1.80;;;3.60;99.90;;;;;;6065107;23;20374;-78
2024/02/23 08:51:44;;;;;;;4.90;1.80;;;3.60;99.90;;;;;;6038765;23;20030;-77
2024/02/23 08:54:32;;;;;;;7.07;1.77;;;3.60;99.90;;;;;;6048411;23;20034;-77
2024/02/23 08:57:44;;;;;;;7.22;1.80;;;3.60;99.90;;;;;;6044740;23;20034;-79
2024/02/23 09:00:32;;;;;;;10.20;1.63;;;3.60;99.90;;;;;;6054301;23;20031;-77
2024/02/23 09:03:20;;;;;;;4.75;1.65;;;3.50;99.90;;;;;;6065407;23;20038;-75
2024/02/23 09:06:08;;;;;;;5.43;1.63;;;3.50;99.90;;;;;;6067707;23;20030;-79
2024/02/23 09:08:56;;;;;;;10.00;2.47;;;3.50;99.90;;;;;;6055366;23;20023;-78
2024/02/23 09:11:46;;;;;;;7.13;2.03;;;3.50;99.90;;;;;;6038136;23;20027;-78
2024/02/23 09:14:37;;;;;;;7.93;1.95;;;3.40;99.90;;;;;;6056417;23;20127;-80
2024/02/23 09:17:27;;;;;;;5.85;1.75;;;3.50;99.90;;;;;;6037198;23;20031;-81
2024/02/23 09:20:16;;;;;;;4.47;1.60;;;3.50;99.90;;;;;;6059299;23;20027;-78
2024/02/23 09:23:09;;;;;;;6.35;1.92;;;3.50;99.90;;;;;;6036405;23;20027;-79
2024/02/23 09:26:10;;;;;;;8.85;1.95;;;3.60;99.90;;;;;;6057260;23;20057;-78
2024/02/23 09:28:58;;;;;;;6.93;1.98;;;3.80;99.90;;;;;;6053521;23;20023;-79
2024/02/23 09:31:45;;;;;;;2.45;1.33;;;3.90;99.90;;;;;;6053661;23;20078;-78
2024/02/23 09:34:33;;;;;;;7.38;1.60;;;4.10;99.90;;;;;;6054902;23;20861;-78
2024/02/23 09:37:20;;;;;;;4.68;1.60;;;4.20;99.90;;;;;;6053648;23;20054;-77
2024/02/23 09:40:09;;;;;;;6.85;1.65;;;4.50;99.90;;;;;;6039797;23;20423;-78
2024/02/23 09:42:58;;;;;;;5.07;1.58;;;4.80;99.90;;;;;;6053255;23;20566;-77
2024/02/23 09:45:46;;;;;;;4.60;1.50;;;5.00;79.00;;;;;;6066397;23;20023;-78
2024/02/23 09:48:35;;;;;;;7.18;1.98;;;5.20;44.50;;;;;;6054983;23;20034;-80
2024/02/23 09:51:23;;;;;;;4.82;1.52;;;5.20;17.50;;;;;;6051086;23;20505;-78
2024/02/23 09:54:11;;;;;;;11.68;2.40;;;5.00;1.00;;;;;;6066322;23;20098;-80
2024/02/23 09:57:11;;;;;;;6.03;1.77;;;5.10;1.00;;;;;;6058339;23;20029;-79
2024/02/23 10:00:05;;;;;;;7.25;1.52;;;5.30;1.00;;;;;;6050437;23;20027;-78
2024/02/23 10:02:54;;;;;;;5.15;1.92;;;5.80;1.00;;;;;;6038822;23;20030;-78
2024/02/23 10:05:45;;;;;;;9.23;2.00;;;6.30;1.00;;;;;;6064718;23;20073;-79
2024/02/23 10:08:33;;;;;;;3.72;1.67;;;6.70;1.00;;;;;;6057984;23;20034;-79
2024/02/23 10:11:41;;;;;;;;;;;;;;;;;;;;;
2024/02/23 10:14:30;;;;;;;6.47;1.77;;;7.30;1.00;;;;;;6059120;23;20037;-80
2024/02/23 10:17:18;;;;;;;4.55;1.50;;;6.70;1.00;;;;;;6060577;23;20423;-78
2024/02/23 10:20:10;;;;;;;6.82;1.98;;;6.20;99.90;;;;;;6072893;23;20087;-80
2024/02/23 10:22:58;;;;;;;8.40;1.85;;;5.90;99.90;;;;;;6068516;23;20026;-78
2024/02/23 10:25:47;;;;;;;11.60;2.00;;;5.80;99.90;;;;;;6049126;23;20027;-80
2024/02/23 10:28:41;;;;;;;10.00;1.92;;;5.60;99.90;;;;;;6070383;23;20033;-76
2024/02/23 10:31:37;;;;;;;10.57;2.05;;;5.70;99.90;;;;;;6053537;23;20025;-76
2024/02/23 10:34:26;;;;;;;5.85;1.92;;;5.80;99.90;;;;;;6031536;23;20035;-79
2024/02/23 10:37:14;;;;;;;10.80;2.08;;;5.80;99.90;;;;;;6065829;23;20039;-81
2024/02/23 10:40:05;;;;;;;12.70;2.05;;;5.60;99.90;;;;;;6078453;23;20031;-77
2024/02/23 10:42:56;;;;;;;7.38;2.00;;;5.70;99.90;;;;;;6043273;23;20037;-79
2024/02/23 10:45:46;;;;;;;7.07;2.13;;;5.80;99.90;;;;;;6083135;23;20027;-80
2024/02/23 10:48:37;;;;;;;8.82;1.58;;;6.30;99.90;;;;;;6064046;23;20038;-79
2024/02/23 10:51:27;;;;;;;6.65;1.52;;;7.10;99.90;;;;;;6055408;23;20034;-77
2024/02/23 10:54:19;;;;;;;10.07;2.05;;;6.60;99.90;;;;;;6081283;23;20034;-78
2024/02/23 10:57:06;;;;;;;2.63;1.40;;;6.40;99.90;;;;;;6078689;23;20023;-77
2024/02/23 10:59:58;;;;;;;8.18;1.73;;;6.30;99.90;;;;;;6064285;23;20247;-80
2024/02/23 11:02:50;;;;;;;4.55;1.75;;;6.30;99.90;;;;;;6070938;23;20026;-78
2024/02/23 11:05:37;;;;;;;6.35;1.70;;;6.30;99.90;;;;;;6061665;23;20078;-78
2024/02/23 11:08:37;;;;;;;5.60;1.65;;;6.30;99.90;;;;;;6059988;23;20030;-78
2024/02/23 11:11:26;;;;;;;4.80;1.90;;;6.50;99.90;;;;;;6061755;23;20101;-81
2024/02/23 11:14:15;;;;;;;7.43;2.22;;;6.70;99.90;;;;;;6060162;23;20031;-82
2024/02/23 11:17:04;;;;;;;7.20;2.33;;;6.70;99.90;;;;;;6040406;23;20035;-79
2024/02/23 11:19:57;;;;;;;7.35;1.65;;;6.70;99.90;;;;;;6060100;23;20042;-81
2024/02/23 11:22:53;;;;;;;7.47;1.92;;;6.50;99.90;;;;;;6058999;23;20038;-81
2024/02/23 11:25:41;;;;;;;9.00;1.65;;;6.40;99.90;;;;;;6038911;23;20027;-79
2024/02/23 11:28:30;;;;;;;4.03;1.45;;;6.30;99.90;;;;;;6040612;23;20385;-79
2024/02/23 11:31:23;;;;;;;5.85;1.67;;;6.20;99.90;;;;;;6058443;23;20027;-77
2024/02/23 11:34:11;;;;;;;4.95;2.10;;;6.30;99.90;;;;;;6058987;23;20074;-79
2024/02/23 11:37:08;;;;;;;9.75;1.77;;;6.30;99.90;;;;;;6040271;23;20042;-78
2024/02/23 11:40:01;;;;;;;6.32;1.75;;;6.20;99.90;;;;;;6069590;23;20027;-77
2024/02/23 11:42:49;;;;;;;4.60;1.55;;;6.20;99.90;;;;;;6065357;23;20035;-80
2024/02/23 11:45:37;;;;;;;8.38;1.70;;;6.20;99.90;;;;;;6048878;23;20034;-78
2024/02/23 11:48:25;;;;;;;7.85;2.70;;;6.10;99.90;;;;;;6070742;23;20027;-78
2024/02/23 11:51:18;;;;;;;7.97;2.35;;;5.90;99.90;;;;;;6055486;23;20022;-79
2024/02/23 11:54:12;;;;;;;7.60;2.00;;;5.90;99.90;;;;;;6051132;23;20190;-79
2024/02/23 11:57:00;;;;;;;6.93;2.00;;;5.90;99.90;;;;;;6044257;23;20027;-79
2024/02/23 11:59:53;;;;;;;8.07;2.45;;;5.90;99.90;;;;;;6058012;23;20379;-82
2024/02/23 12:02:43;;;;;;;6.13;1.90;;;6.00;99.90;;;;;;6040242;23;20023;-79
2024/02/23 12:05:30;;;;;;;9.70;2.05;;;6.10;99.90;;;;;;6060778;23;20335;-79
2024/02/23 12:08:23;;;;;;;7.68;1.58;;;6.20;99.90;;;;;;6058817;23;20035;-78
2024/02/23 12:11:14;;;;;;;9.02;1.95;;;6.40;99.90;;;;;;6042559;23;20041;-80
2024/02/23 12:14:02;;;;;;;7.97;1.98;;;6.40;99.90;;;;;;6060483;23;20031;-79
2024/02/23 12:16:51;;;;;;;9.80;2.00;;;6.30;99.90;;;;;;6060732;23;20039;-78
2024/02/23 12:19:42;;;;;;;4.22;1.65;;;6.30;99.90;;;;;;6062648;23;20027;-80
2024/02/23 12:22:31;;;;;;;11.25;1.85;;;6.30;99.90;;;;;;6041417;23;20386;-78
2024/02/23 12:25:20;;;;;;;6.75;1.80;;;6.30;99.90;;;;;;6043992;23;20030;-81
2024/02/23 12:28:11;;;;;;;8.35;1.52;;;6.40;99.90;;;;;;6064490;23;20023;-79
2024/02/23 12:31:00;;;;;;;5.35;1.73;;;6.40;99.90;;;;;;6059541;23;20046;-80
2024/02/23 12:33:51;;;;;;;5.07;1.90;;;6.50;99.90;;;;;;6085057;23;20041;-79
2024/02/23 12:36:40;;;;;;;5.60;1.83;;;6.50;99.90;;;;;;6089178;23;20029;-78
2024/02/23 12:39:28;;;;;;;8.32;1.67;;;6.60;99.90;;;;;;6071748;23;20054;-76
2024/02/23 12:42:18;;;;;;;6.88;1.60;;;6.60;99.90;;;;;;6081431;23;20106;-77
2024/02/23 12:45:08;;;;;;;6.18;1.60;;;6.60;99.90;;;;;;6051661;23;20502;-77
2024/02/23 12:47:56;;;;;;;9.90;1.95;;;6.50;99.90;;;;;;6057816;23;20027;-78
2024/02/23 12:50:45;;;;;;;8.50;1.92;;;6.40;99.90;;;;;;6069794;23;20030;-79
2024/02/23 12:53:41;;;;;;;8.00;1.80;;;6.40;99.90;;;;;;6060269;23;20041;-80
2024/02/23 12:56:29;;;;;;;6.47;1.90;;;6.50;99.90;;;;;;6063043;23;20735;-78
2024/02/23 12:59:20;;;;;;;9.93;2.33;;;6.90;99.90;;;;;;6062786;23;20030;-80
2024/02/23 13:02:12;;;;;;;7.18;1.80;;;7.10;99.90;;;;;;6041597;23;20026;-80
2024/02/23 13:05:01;;;;;;;8.15;2.13;;;7.00;99.90;;;;;;6065162;23;20015;-80
2024/02/23 13:08:04;;;;;;;6.85;1.73;;;6.90;99.90;;;;;;6046449;23;20042;-78
2024/02/23 13:14:34;;;;;;;8.32;2.35;;;6.80;99.90;;;;;;6063239;23;20027;-79
2024/02/23 13:17:23;;;;;;;7.55;1.75;;;6.90;99.90;;;;;;6058448;23;20113;-80
2024/02/23 13:20:12;;;;;;;7.60;2.25;;;7.00;99.90;;;;;;6057370;23;20050;-81
2024/02/23 13:23:08;;;;;;;9.60;2.00;;;6.80;99.90;;;;;;6038884;23;20038;-80
2024/02/23 13:25:56;;;;;;;17.45;2.45;;;6.70;99.90;;;;;;6060921;23;20083;-79
2024/02/23 13:28:46;;;;;;;6.70;2.03;;;6.80;99.90;;;;;;6063409;23;20086;-79
2024/02/23 13:31:34;;;;;;;9.50;2.05;;;6.80;99.90;;;;;;6055571;23;20062;-77
2024/02/23 13:34:22;;;;;;;8.90;2.35;;;6.80;99.90;;;;;;6032242;23;20045;-76
2024/02/23 13:37:11;;;;;;;6.93;2.42;;;6.90;99.90;;;;;;6055467;23;20037;-78
2024/02/23 13:39:59;;;;;;;9.65;2.17;;;7.00;99.90;;;;;;6055274;23;20049;-77
2024/02/23 13:42:50;;;;;;;6.97;1.88;;;7.30;99.90;;;;;;6044754;23;20097;-77
2024/02/23 13:45:52;;;;;;;10.23;2.50;;;7.40;99.90;;;;;;6066149;23;20030;-76
2024/02/23 13:48:41;;;;;;;8.00;1.65;;;7.30;99.90;;;;;;6051693;23;21149;-78
2024/02/23 13:51:29;;;;;;;10.27;1.70;;;7.30;99.90;;;;;;6066868;23;20023;-79
2024/02/23 13:54:19;;;;;;;8.07;1.67;;;7.50;99.90;;;;;;6032607;23;20781;-78
2024/02/23 13:57:07;;;;;;;9.82;2.28;;;8.10;99.90;;;;;;6065187;23;20471;-78
2024/02/23 13:59:56;;;;;;;9.45;2.17;;;8.50;99.90;;;;;;6060883;23;20031;-79
2024/02/23 14:02:45;;;;;;;7.43;2.05;;;8.10;99.90;;;;;;6058774;23;20041;-78
2024/02/23 14:05:34;;;;;;;11.15;2.35;;;7.90;99.90;;;;;;6059457;23;20031;-78
2024/02/23 14:08:25;;;;;;;9.05;2.58;;;7.70;99.90;;;;;;6055569;23;20031;-78
2024/02/23 14:11:12;;;;;;;11.70;1.95;;;7.70;99.90;;;;;;6034381;23;20058;-79
2024/02/23 14:14:02;;;;;;;7.03;1.98;;;7.90;99.90;;;;;;6037747;23;20115;-79
2024/02/23 14:16:54;;;;;;;10.00;1.70;;;9.40;99.90;;;;;;6061223;23;20034;-78
2024/02/23 14:19:42;;;;;;;8.35;1.98;;;10.80;99.90;;;;;;6054241;23;20031;-77
2024/02/23 14:22:29;;;;;;;10.32;1.95;;;12.20;99.90;;;;;;6078068;23;20295;-76
2024/02/23 14:25:19;;;;;;;8.63;1.70;;;12.50;99.90;;;;;;6075553;23;20105;-76
2024/02/23 14:28:06;;;;;;;9.13;2.10;;;11.10;99.90;;;;;;6058569;23;20323;-77
2024/02/23 14:30:56;;;;;;;4.97;1.98;;;9.50;99.90;;;;;;6065570;23;20027;-79
2024/02/23 14:33:44;;;;;;;8.43;1.75;;;8.40;99.90;;;;;;6056736;23;20046;-77
2024/02/23 14:36:35;;;;;;;10.40;1.92;;;7.70;99.90;;;;;;6041490;23;20026;-76
2024/02/23 14:39:23;;;;;;;10.73;2.33;;;7.20;99.90;;;;;;6066865;23;20038;-78
2024/02/23 14:42:11;;;;;;;7.63;2.30;;;7.00;99.90;;;;;;6053570;23;20488;-78
2024/02/23 14:45:00;;;;;;;6.70;2.22;;;6.90;99.90;;;;;;6053265;23;20070;-76
2024/02/23 14:47:47;;;;;;;8.50;2.00;;;6.90;99.90;;;;;;6058691;23;20875;-77
2024/02/23 14:50:35;;;;;;;13.70;2.10;;;6.80;99.90;;;;;;6056146;23;20110;-78
2024/02/23 14:53:23;;;;;;;7.90;1.40;;;6.70;99.90;;;;;;6055571;23;20114;-79
2024/02/23 14:56:14;;;;;;;11.73;2.28;;;6.70;99.90;;;;;;6033362;23;20026;-78
2024/02/23 14:59:01;;;;;;;9.55;2.13;;;6.70;99.90;;;;;;6032478;23;20023;-77
2024/02/23 15:01:55;;;;;;;8.57;1.90;;;6.70;99.90;;;;;;6056021;23;20072;-78